createdAt,value
2023-04-21T00:02:17.301Z,101696.03
2023-04-21T00:04:45.740Z,101695.00
2023-04-21T00:07:14.646Z,101690.88
2023-04-21T00:09:41.117Z,101691.09
2023-04-21T00:12:07.668Z,101682.16
2023-04-21T00:14:34.024Z,101682.16
2023-04-21T00:17:00.535Z,101687.31
2023-04-21T00:19:26.950Z,101680.72
2023-04-21T00:21:58.515Z,101669.06
2023-04-21T00:24:25.728Z,101666.38
2023-04-21T00:26:52.056Z,101671.34
2023-04-21T00:29:18.949Z,101673.03
2023-04-21T00:31:45.519Z,101667.22
2023-04-21T00:34:11.859Z,101669.69
2023-04-21T00:36:38.187Z,101664.50
2023-04-21T00:39:04.538Z,101666.78
2023-04-21T00:41:31.346Z,101664.94
2023-04-21T00:44:08.135Z,101663.88
2023-04-21T00:46:35.850Z,101658.47
2023-04-21T00:49:07.206Z,101658.47
2023-04-21T00:51:35.676Z,101648.94
2023-04-21T00:54:06.201Z,101651.84
2023-04-21T00:56:34.500Z,101654.31
2023-04-21T00:59:02.143Z,101640.22
2023-04-21T01:01:30.035Z,101640.19
2023-04-21T01:03:59.205Z,101638.31
2023-04-21T01:06:29.028Z,101638.31
2023-04-21T01:08:55.858Z,101632.72
2023-04-21T01:11:22.252Z,101626.72
2023-04-21T01:13:48.694Z,101625.47
2023-04-21T01:16:18.669Z,101623.19
2023-04-21T01:18:45.613Z,101621.94
2023-04-21T01:21:12.973Z,101613.44
2023-04-21T01:23:40.476Z,101620.06
2023-04-21T01:26:07.586Z,101614.47
2023-04-21T01:28:34.241Z,101615.34
2023-04-21T01:31:00.837Z,101620.69
2023-04-21T01:33:27.583Z,101609.91
2023-04-21T01:35:55.490Z,101610.53
2023-04-21T01:38:22.389Z,101607.84
2023-04-21T01:40:51.743Z,101606.97
2023-04-21T01:43:20.977Z,101594.13
2023-04-21T01:45:47.750Z,101590.00
2023-04-21T01:48:14.249Z,101584.97
2023-04-21T01:50:40.613Z,101581.66
2023-04-21T01:53:06.928Z,101584.78
2023-04-21T01:55:33.457Z,101581.25
2023-04-21T01:57:59.989Z,101586.88
2023-04-21T02:00:26.896Z,101591.03
2023-04-21T02:02:53.420Z,101585.63
2023-04-21T02:05:19.904Z,101587.50
2023-04-21T02:07:46.295Z,101591.44
2023-04-21T02:10:13.115Z,101599.53
2023-04-21T02:12:39.544Z,101596.84
2023-04-21T02:15:06.744Z,101597.44
2023-04-21T02:17:33.160Z,101600.38
2023-04-21T02:20:00.009Z,101601.59
2023-04-21T02:22:27.208Z,101589.56
2023-04-21T02:24:53.547Z,101584.97
2023-04-21T02:27:19.930Z,101576.09
2023-04-21T02:29:46.296Z,101578.97
2023-04-21T02:32:22.264Z,101583.13
2023-04-21T02:34:52.049Z,101580.88
2023-04-21T02:37:18.470Z,101590.00
2023-04-21T02:39:44.845Z,101586.25
2023-04-21T02:42:11.448Z,101584.78
2023-04-21T02:44:38.359Z,101590.19
2023-04-21T02:47:04.842Z,101582.72
2023-04-21T02:49:31.229Z,101583.34
2023-04-21T02:52:00.640Z,101584.59
2023-04-21T02:54:26.969Z,101581.25
2023-04-21T02:56:53.363Z,101579.38
2023-04-21T02:59:20.313Z,101567.56
2023-04-21T03:01:49.131Z,101563.22
2023-04-21T03:04:15.666Z,101574.59
2023-04-21T03:06:42.309Z,101572.97
2023-04-21T03:09:09.087Z,101569.22
2023-04-21T03:11:35.416Z,101566.97
2023-04-21T03:14:01.723Z,101569.84
2023-04-21T03:16:28.229Z,101577.13
2023-04-21T03:18:54.598Z,101570.06
2023-04-21T03:21:21.039Z,101572.56
2023-04-21T03:23:47.441Z,101564.25
2023-04-21T03:26:13.775Z,101549.56
2023-04-21T03:28:40.176Z,101556.81
2023-04-21T03:31:06.551Z,101565.94
2023-04-21T03:33:32.858Z,101565.31
2023-04-21T03:35:59.231Z,101550.78
2023-04-21T03:38:25.723Z,101564.25
2023-04-21T03:40:52.093Z,101560.13
2023-04-21T03:43:18.509Z,101546.22
2023-04-21T03:45:44.972Z,101555.34
2023-04-21T03:48:11.327Z,101563.44
2023-04-21T03:50:38.423Z,101555.34
2023-04-21T03:53:04.804Z,101538.13
2023-04-21T03:55:31.197Z,101535.22
2023-04-21T03:57:57.565Z,101534.00
2023-04-21T04:00:24.145Z,101540.63
2023-04-21T04:02:50.740Z,101535.22
2023-04-21T04:05:17.193Z,101534.00
2023-04-21T04:07:43.584Z,101545.59
2023-04-21T04:10:10.209Z,101554.31
2023-04-21T04:12:36.593Z,101550.78
2023-04-21T04:15:03.255Z,101530.66
2023-04-21T04:17:29.601Z,101526.09
2023-04-21T04:19:56.428Z,101516.78
2023-04-21T04:22:22.759Z,101520.09
2023-04-21T04:24:49.106Z,101531.47
2023-04-21T04:27:15.435Z,101531.06
2023-04-21T04:29:41.830Z,101522.34
2023-04-21T04:32:10.853Z,101535.22
2023-04-21T04:34:37.992Z,101531.72
2023-04-21T04:37:04.662Z,101524.41
2023-04-21T04:39:32.140Z,101535.84
2023-04-21T04:41:58.512Z,101529.00
2023-04-21T04:44:25.800Z,101527.34
2023-04-21T04:46:52.862Z,101525.47
2023-04-21T04:49:19.726Z,101529.00
2023-04-21T04:51:46.350Z,101514.88
2023-04-21T04:54:12.893Z,101519.84
2023-04-21T04:56:40.369Z,101516.97
2023-04-21T04:59:06.874Z,101527.75
2023-04-21T05:01:33.237Z,101529.41
2023-04-21T05:03:59.830Z,101531.91
2023-04-21T05:06:26.565Z,101537.72
2023-04-21T05:08:52.912Z,101527.53
2023-04-21T05:11:19.325Z,101531.25
2023-04-21T05:13:45.857Z,101536.84
2023-04-21T05:16:12.490Z,101536.63
2023-04-21T05:18:38.935Z,101531.84
2023-04-21T05:21:05.469Z,101538.09
2023-04-21T05:23:31.822Z,101548.06
2023-04-21T05:25:58.192Z,101544.72
2023-04-21T05:28:24.713Z,101539.31
2023-04-21T05:30:51.045Z,101538.88
2023-04-21T05:33:21.186Z,101537.81
2023-04-21T05:35:47.580Z,101538.25
2023-04-21T05:38:13.909Z,101543.03
2023-04-21T05:40:40.314Z,101545.91
2023-04-21T05:43:06.738Z,101550.44
2023-04-21T05:45:33.051Z,101560.00
2023-04-21T05:47:59.428Z,101562.03
2023-04-21T05:50:28.517Z,101557.47
2023-04-21T05:52:54.920Z,101569.47
2023-04-21T05:55:21.406Z,101562.84
2023-04-21T05:57:47.831Z,101563.22
2023-04-21T06:00:14.854Z,101561.53
2023-04-21T06:02:41.426Z,101566.50
2023-04-21T06:07:37.165Z,101557.53
2023-04-21T06:10:04.201Z,101561.91
2023-04-21T06:12:30.658Z,101556.50
2023-04-21T06:14:57.662Z,101554.84
2023-04-21T06:17:24.354Z,101550.06
2023-04-21T06:19:53.910Z,101551.50
2023-04-21T06:22:20.882Z,101550.25
2023-04-21T06:24:47.513Z,101542.31
2023-04-21T06:27:14.262Z,101545.03
2023-04-21T06:29:42.736Z,101555.75
2023-04-21T06:32:10.555Z,101552.59
2023-04-21T06:34:37.700Z,101556.72
2023-04-21T06:37:04.353Z,101556.88
2023-04-21T06:39:31.009Z,101555.41
2023-04-21T06:41:58.385Z,101558.47
2023-04-21T06:44:24.803Z,101546.63
2023-04-21T06:46:51.234Z,101548.66
2023-04-21T06:49:17.916Z,101544.03
2023-04-21T06:51:44.881Z,101548.50
2023-04-21T06:54:11.271Z,101542.59
2023-04-21T06:56:37.705Z,101537.50
2023-04-21T06:59:04.132Z,101527.00
2023-04-21T07:01:30.604Z,101528.75
2023-04-21T07:03:57.064Z,101529.69
2023-04-21T07:06:23.564Z,101529.84
2023-04-21T07:08:49.943Z,101535.78
2023-04-21T07:11:16.284Z,101537.22
2023-04-21T07:13:42.655Z,101533.00
2023-04-21T07:16:09.011Z,101534.19
2023-04-21T07:18:35.360Z,101536.25
2023-04-21T07:21:01.786Z,101534.38
2023-04-21T07:23:28.357Z,101534.63
2023-04-21T07:25:54.758Z,101527.66
2023-04-21T07:28:21.067Z,101525.91
2023-04-21T07:30:47.577Z,101546.25
2023-04-21T07:33:14.081Z,101547.03
2023-04-21T07:35:40.496Z,101547.63
2023-04-21T07:38:06.834Z,101552.72
2023-04-21T07:40:33.290Z,101546.19
2023-04-21T07:42:59.749Z,101540.75
2023-04-21T07:45:26.473Z,101543.09
2023-04-21T07:47:52.936Z,101545.44
2023-04-21T07:50:19.359Z,101545.03
2023-04-21T07:52:45.904Z,101540.78
2023-04-21T07:55:12.265Z,101546.78
2023-04-21T07:57:40.006Z,101545.28
2023-04-21T08:00:07.729Z,101538.53
2023-04-21T08:02:34.246Z,101539.00
2023-04-21T08:05:00.961Z,101535.44
2023-04-21T08:07:27.491Z,101536.66
2023-04-21T08:09:53.929Z,101535.34
2023-04-21T08:12:20.281Z,101535.81
2023-04-21T08:14:46.785Z,101528.16
2023-04-21T08:17:13.183Z,101540.88
2023-04-21T08:19:39.626Z,101540.31
2023-04-21T08:22:05.972Z,101550.13
2023-04-21T08:24:32.605Z,101542.94
2023-04-21T08:26:59.028Z,101529.19
2023-04-21T08:29:25.421Z,101524.66
2023-04-21T08:31:51.759Z,101534.47
2023-04-21T08:34:20.725Z,101538.53
2023-04-21T08:36:47.828Z,101539.16
2023-04-21T08:39:17.740Z,101538.13
2023-04-21T08:41:44.446Z,101550.41
2023-04-21T08:44:13.832Z,101542.50
2023-04-21T08:46:40.448Z,101544.97
2023-04-21T08:49:09.649Z,101550.38
2023-04-21T08:51:36.313Z,101545.25
2023-04-21T08:54:02.703Z,101545.41
2023-04-21T08:56:29.112Z,101545.78
2023-04-21T08:58:56.256Z,101543.75
2023-04-21T09:01:22.788Z,101546.78
2023-04-21T09:03:49.242Z,101541.25
2023-04-21T09:06:16.645Z,101535.63
2023-04-21T09:08:44.426Z,101532.91
2023-04-21T09:11:14.548Z,101540.09
2023-04-21T09:13:43.019Z,101541.50
2023-04-21T09:16:18.724Z,101531.38
2023-04-21T09:18:45.344Z,101528.16
2023-04-21T09:21:14.118Z,101526.75
2023-04-21T09:23:52.408Z,101537.66
2023-04-21T09:26:22.508Z,101536.22
2023-04-21T09:28:50.676Z,101535.88
2023-04-21T09:31:24.412Z,101533.41
2023-04-21T09:33:58.775Z,101531.63
2023-04-21T09:36:29.579Z,101529.31
2023-04-21T09:41:32.399Z,101543.38
2023-04-21T09:44:02.040Z,101536.81
2023-04-21T09:46:32.357Z,101529.75
2023-04-21T09:49:01.684Z,101532.47
2023-04-21T09:51:52.852Z,101530.56
2023-04-21T09:56:54.743Z,101513.63
2023-04-21T09:59:27.421Z,101510.84
2023-04-21T10:01:56.128Z,101510.50
2023-04-21T10:04:25.225Z,101522.09
2023-04-21T10:06:53.006Z,101511.94
2023-04-21T10:09:22.449Z,101515.44
2023-04-21T10:11:48.792Z,101518.06
2023-04-21T10:14:15.227Z,101510.41
2023-04-21T10:16:42.828Z,101518.72
2023-04-21T10:19:31.843Z,101511.28
2023-04-21T10:21:58.992Z,101511.94
2023-04-21T10:24:29.665Z,101506.88
2023-04-21T10:27:02.059Z,101497.91
2023-04-21T10:29:37.473Z,101495.94
2023-04-21T10:32:10.518Z,101500.38
2023-04-21T10:34:41.322Z,101503.09
2023-04-21T10:37:11.603Z,101500.28
2023-04-21T10:39:48.169Z,101498.94
2023-04-21T10:42:20.725Z,101501.03
2023-04-21T10:44:57.086Z,101491.06
2023-04-21T10:47:27.165Z,101495.69
2023-04-21T10:49:53.755Z,101491.47
2023-04-21T10:52:21.429Z,101485.34
2023-04-21T10:54:47.800Z,101490.31
2023-04-21T10:57:16.656Z,101486.13
2023-04-21T10:59:44.582Z,101479.22
2023-04-21T11:02:12.631Z,101483.78
2023-04-21T11:04:42.033Z,101479.19
2023-04-21T11:07:11.907Z,101473.50
2023-04-21T11:09:39.940Z,101469.38
2023-04-21T11:12:09.422Z,101456.31
2023-04-21T11:14:37.711Z,101451.69
2023-04-21T11:17:06.062Z,101453.56
2023-04-21T11:19:32.604Z,101457.41
2023-04-21T11:21:59.459Z,101448.31
2023-04-21T11:24:25.948Z,101460.00
2023-04-21T11:26:52.386Z,101457.34
2023-04-21T11:29:18.796Z,101450.34
2023-04-21T11:31:48.947Z,101449.75
2023-04-21T11:34:16.262Z,101446.44
2023-04-21T11:36:43.462Z,101436.63
2023-04-21T11:39:21.560Z,101431.53
2023-04-21T11:41:51.850Z,101434.53
2023-04-21T11:44:43.120Z,101432.34
2023-04-21T11:47:17.558Z,101420.00
2023-04-21T11:49:46.376Z,101418.66
2023-04-21T11:52:24.072Z,101410.97
2023-04-21T11:55:05.817Z,101417.44
2023-04-21T11:57:33.378Z,101408.94
2023-04-21T12:00:01.105Z,101402.88
2023-04-21T12:02:29.642Z,101392.66
2023-04-21T12:05:09.594Z,101393.53
2023-04-21T12:07:38.098Z,101384.56
2023-04-21T12:10:12.740Z,101390.06
2023-04-21T12:12:40.481Z,101390.63
2023-04-21T12:15:08.185Z,101382.88
2023-04-21T12:17:45.261Z,101387.47
2023-04-21T12:20:13.018Z,101383.59
2023-04-21T12:22:39.380Z,101382.06
2023-04-21T12:25:06.262Z,101376.41
2023-04-21T12:27:32.990Z,101372.72
2023-04-21T12:29:59.391Z,101366.34
2023-04-21T12:32:26.192Z,101364.91
2023-04-21T12:34:52.626Z,101363.13
2023-04-21T12:37:19.318Z,101366.69
2023-04-21T12:39:45.887Z,101364.94
2023-04-21T12:42:12.282Z,101347.38
2023-04-21T12:44:38.705Z,101350.06
2023-04-21T12:47:05.266Z,101349.88
2023-04-21T12:49:31.936Z,101344.38
2023-04-21T12:51:58.813Z,101343.38
2023-04-21T12:54:25.134Z,101340.09
2023-04-21T12:56:51.481Z,101349.25
2023-04-21T12:59:17.936Z,101348.81
2023-04-21T13:01:44.392Z,101332.44
2023-04-21T13:04:11.234Z,101332.72
2023-04-21T13:06:38.729Z,101336.28
2023-04-21T13:09:06.297Z,101335.44
2023-04-21T13:11:32.775Z,101323.94
2023-04-21T13:13:59.161Z,101321.69
2023-04-21T13:16:27.797Z,101321.59
2023-04-21T13:18:56.512Z,101313.94
2023-04-21T13:21:22.889Z,101308.59
2023-04-21T13:23:49.285Z,101313.25
2023-04-21T13:26:16.068Z,101304.00
2023-04-21T13:28:42.520Z,101306.75
2023-04-21T13:31:08.971Z,101302.63
2023-04-21T13:33:35.650Z,101294.69
2023-04-21T13:36:04.865Z,101297.69
2023-04-21T13:38:32.133Z,101280.31
2023-04-21T13:40:58.933Z,101275.06
2023-04-21T13:43:25.432Z,101259.97
2023-04-21T13:45:52.365Z,101272.38
2023-04-21T13:48:24.019Z,101265.44
2023-04-21T13:50:51.430Z,101248.22
2023-04-21T13:53:20.638Z,101242.38
2023-04-21T13:55:47.742Z,101242.69
2023-04-21T13:58:17.800Z,101234.38
2023-04-21T14:00:44.251Z,101231.53
2023-04-21T14:03:11.666Z,101228.88
2023-04-21T14:05:38.967Z,101222.34
2023-04-21T14:08:05.667Z,101215.75
2023-04-21T14:10:32.146Z,101210.44
2023-04-21T14:12:58.481Z,101203.22
2023-04-21T14:15:26.276Z,101198.50
2023-04-21T14:17:53.335Z,101194.03
2023-04-21T14:20:20.117Z,101191.34
2023-04-21T14:22:47.559Z,101187.69
2023-04-21T14:25:14.048Z,101190.38
2023-04-21T14:27:40.570Z,101178.06
2023-04-21T14:30:07.583Z,101182.44
2023-04-21T14:32:34.005Z,101179.13
2023-04-21T14:35:03.130Z,101174.59
2023-04-21T14:37:29.547Z,101176.63
2023-04-21T14:39:56.002Z,101169.94
2023-04-21T14:42:22.498Z,101173.28
2023-04-21T14:44:48.921Z,101172.91
2023-04-21T14:47:15.433Z,101168.28
2023-04-21T14:49:41.938Z,101175.97
2023-04-21T14:52:09.236Z,101158.47
2023-04-21T14:54:35.674Z,101156.53
2023-04-21T14:57:17.498Z,101156.25
2023-04-21T14:59:47.088Z,101154.31
2023-04-21T15:02:14.198Z,101160.00
2023-04-21T15:04:40.991Z,101149.72
2023-04-21T15:07:07.425Z,101140.78
2023-04-21T15:09:34.141Z,101137.69
2023-04-21T15:12:00.732Z,101130.13
2023-04-21T15:14:27.195Z,101124.19
2023-04-21T15:16:53.562Z,101122.00
2023-04-21T15:19:19.961Z,101117.09
2023-04-21T15:21:46.371Z,101112.09
2023-04-21T15:24:12.879Z,101104.88
2023-04-21T15:26:40.293Z,101096.56
2023-04-21T15:29:07.047Z,101099.38
2023-04-21T15:31:33.875Z,101099.75
2023-04-21T15:34:00.486Z,101089.13
2023-04-21T15:36:27.560Z,101090.25
2023-04-21T15:38:53.908Z,101084.00
2023-04-21T15:41:20.375Z,101077.31
2023-04-21T15:43:47.596Z,101068.03
2023-04-21T15:46:14.086Z,101075.16
2023-04-21T15:48:44.032Z,101068.00
2023-04-21T15:51:13.498Z,101067.91
2023-04-21T15:53:47.221Z,101069.09
2023-04-21T15:56:14.578Z,101063.19
2023-04-21T15:58:41.055Z,101063.50
2023-04-21T16:01:08.031Z,101068.81
2023-04-21T16:03:34.807Z,101054.72
2023-04-21T16:06:01.963Z,101048.84
2023-04-21T16:08:28.420Z,101044.53
2023-04-21T16:10:54.891Z,101047.53
2023-04-21T16:13:21.286Z,101046.16
2023-04-21T16:15:47.702Z,101038.00
2023-04-21T16:18:14.188Z,101033.41
2023-04-21T16:20:41.067Z,101036.78
2023-04-21T16:23:07.555Z,101026.81
2023-04-21T16:25:34.026Z,101029.75
2023-04-21T16:28:00.718Z,101020.44
2023-04-21T16:30:27.117Z,101018.91
2023-04-21T16:32:53.528Z,101015.56
2023-04-21T16:35:19.935Z,101015.78
2023-04-21T16:37:46.430Z,101015.22
2023-04-21T16:40:13.011Z,101000.97
2023-04-21T16:42:39.410Z,101006.13
2023-04-21T16:45:06.569Z,100996.75
2023-04-21T16:47:37.858Z,101000.63
2023-04-21T16:50:08.179Z,100997.63
2023-04-21T16:52:35.233Z,100991.53
2023-04-21T16:55:01.715Z,100985.22
2023-04-21T16:57:29.263Z,100992.75
2023-04-21T16:59:55.777Z,100984.59
2023-04-21T17:02:22.370Z,100987.78
2023-04-21T17:04:48.942Z,100986.28
2023-04-21T17:07:15.921Z,100973.44
2023-04-21T17:09:42.332Z,100977.53
2023-04-21T17:12:09.434Z,100979.94
2023-04-21T17:14:36.204Z,100983.31
2023-04-21T17:17:02.964Z,100980.91
2023-04-21T17:19:29.454Z,100984.84
2023-04-21T17:21:55.999Z,100979.38
2023-04-21T17:24:22.537Z,100984.38
2023-04-21T17:26:49.029Z,100981.16
2023-04-21T17:29:15.664Z,100975.66
2023-04-21T17:31:42.060Z,100969.66
2023-04-21T17:34:08.461Z,100965.84
2023-04-21T17:36:35.225Z,100957.78
2023-04-21T17:39:01.840Z,100945.72
2023-04-21T17:41:28.170Z,100945.41
2023-04-21T17:43:57.130Z,100935.47
2023-04-21T17:46:25.038Z,100926.38
2023-04-21T17:48:52.228Z,100927.75
2023-04-21T17:51:19.249Z,100924.41
2023-04-21T17:53:46.591Z,100927.91
2023-04-21T17:56:14.329Z,100920.88
2023-04-21T17:58:41.378Z,100933.66
2023-04-21T18:01:08.212Z,100934.09
2023-04-21T18:03:36.192Z,100927.63
2023-04-21T18:06:03.043Z,100930.97
2023-04-21T18:08:29.553Z,100953.47
2023-04-21T18:10:55.862Z,100985.78
2023-04-21T18:13:22.196Z,101012.13
2023-04-21T18:15:48.657Z,101074.88
2023-04-21T18:18:15.120Z,101129.06
2023-04-21T18:20:42.124Z,101026.28
2023-04-21T18:23:08.639Z,100987.88
2023-04-21T18:28:07.472Z,101048.78
2023-04-21T18:30:34.087Z,101007.66
2023-04-21T18:33:00.473Z,101011.41
2023-04-21T18:35:26.865Z,101027.06
2023-04-21T18:37:53.270Z,101021.75
2023-04-21T18:40:19.778Z,101030.34
2023-04-21T18:42:46.697Z,101017.06
2023-04-21T18:45:13.078Z,101014.13
2023-04-21T18:47:40.198Z,101006.34
2023-04-21T18:50:08.174Z,101002.25
2023-04-21T18:52:34.604Z,101008.22
2023-04-21T18:55:01.147Z,101004.69
2023-04-21T18:57:27.669Z,101002.25
2023-04-21T18:59:54.296Z,100992.47
2023-04-21T19:02:20.981Z,100992.00
2023-04-21T19:04:47.658Z,100986.25
2023-04-21T19:07:15.647Z,100984.25
2023-04-21T19:09:42.000Z,100980.94
2023-04-21T19:12:08.444Z,100979.41
2023-04-21T19:14:46.055Z,100984.50
2023-04-21T19:17:13.694Z,100985.44
2023-04-21T19:19:40.705Z,100973.66
2023-04-21T19:22:07.154Z,100974.97
2023-04-21T19:24:33.861Z,100964.63
2023-04-21T19:27:02.160Z,100969.41
2023-04-21T19:29:28.772Z,100963.31
2023-04-21T19:31:55.355Z,100961.66
2023-04-21T19:34:22.182Z,100954.38
2023-04-21T19:36:48.876Z,100952.50
2023-04-21T19:39:15.333Z,100938.25
2023-04-21T19:41:41.681Z,100932.84
2023-04-21T19:44:08.000Z,100937.81
2023-04-21T19:46:34.585Z,100939.34
2023-04-21T19:49:01.101Z,100937.31
2023-04-21T19:51:27.879Z,100937.66
2023-04-21T19:54:10.123Z,100933.78
2023-04-21T19:56:38.067Z,100931.59
2023-04-21T19:59:05.506Z,100928.06
2023-04-21T20:01:33.367Z,100930.97
2023-04-21T20:03:59.988Z,100939.56
2023-04-21T20:06:27.120Z,100939.47
2023-04-21T20:08:53.569Z,100927.34
2023-04-21T20:11:20.915Z,100934.03
2023-04-21T20:13:47.832Z,100929.09
2023-04-21T20:16:14.197Z,100932.72
2023-04-21T20:18:40.661Z,100929.09
2023-04-21T20:21:07.090Z,100935.91
2023-04-21T20:23:33.699Z,100918.84
2023-04-21T20:26:00.257Z,100916.63
2023-04-21T20:28:27.604Z,100922.25
2023-04-21T20:30:56.184Z,100912.50
2023-04-21T20:33:22.816Z,100905.56
2023-04-21T20:35:49.714Z,100906.28
2023-04-21T20:38:16.375Z,100894.88
2023-04-21T20:40:43.018Z,100900.72
2023-04-21T20:43:10.327Z,100916.34
2023-04-21T20:45:37.604Z,100915.31
2023-04-21T20:48:04.530Z,100927.31
2023-04-21T20:50:30.968Z,100939.19
2023-04-21T20:52:58.223Z,100948.50
2023-04-21T20:55:24.706Z,100970.59
2023-04-21T20:57:51.306Z,100994.47
2023-04-21T21:00:17.912Z,101004.25
2023-04-21T21:02:44.777Z,101012.38
2023-04-21T21:05:11.298Z,101022.94
2023-04-21T21:07:37.900Z,101044.00
2023-04-21T21:10:04.979Z,101061.16
2023-04-21T21:12:31.466Z,101067.97
2023-04-21T21:14:58.023Z,101071.75
2023-04-21T21:17:24.544Z,101086.31
2023-04-21T21:19:51.007Z,101083.00
2023-04-21T21:22:17.432Z,101079.25
2023-04-21T21:24:43.886Z,101085.00
2023-04-21T21:27:10.652Z,101083.13
2023-04-21T21:29:37.357Z,101089.13
2023-04-21T21:32:04.006Z,101075.72
2023-04-21T21:34:30.381Z,101075.97
2023-04-21T21:36:56.772Z,101064.44
2023-04-21T21:39:23.302Z,101057.75
2023-04-21T21:41:49.641Z,101057.06
2023-04-21T21:44:16.086Z,101045.16
2023-04-21T21:46:42.858Z,101046.22
2023-04-21T21:49:09.275Z,101044.81
2023-04-21T21:51:35.696Z,101028.34
2023-04-21T21:54:02.096Z,101025.44
2023-04-21T21:56:28.575Z,101028.34
2023-04-21T21:58:55.053Z,101020.94
2023-04-21T22:01:21.554Z,101008.13
2023-04-21T22:03:48.128Z,101003.41
2023-04-21T22:06:16.961Z,100988.97
2023-04-21T22:08:43.817Z,100986.84
2023-04-21T22:11:10.236Z,100988.13
2023-04-21T22:13:36.882Z,100981.66
2023-04-21T22:16:03.462Z,100976.25
2023-04-21T22:18:30.190Z,100964.97
2023-04-21T22:20:58.128Z,100974.13
2023-04-21T22:23:25.408Z,100966.13
2023-04-21T22:25:51.783Z,100960.97
2023-04-21T22:28:18.210Z,100960.50
2023-04-21T22:30:44.684Z,100974.56
2023-04-21T22:33:11.260Z,100980.31
2023-04-21T22:35:37.617Z,100975.97
2023-04-21T22:38:03.952Z,100968.44
2023-04-21T22:40:30.439Z,100966.88
2023-04-21T22:42:56.805Z,100970.72
2023-04-21T22:45:23.261Z,100959.91
2023-04-21T22:47:49.676Z,100968.34
2023-04-21T22:50:16.149Z,100969.38
2023-04-21T22:52:42.698Z,100975.94
2023-04-21T22:55:09.571Z,100973.84
2023-04-21T22:57:37.463Z,100969.34
2023-04-21T23:00:06.357Z,100961.94
2023-04-21T23:02:33.102Z,100952.88
2023-04-21T23:04:59.582Z,100955.66
2023-04-21T23:07:26.101Z,100950.72
2023-04-21T23:09:52.549Z,100966.31
2023-04-21T23:12:18.970Z,100957.25
2023-04-21T23:14:45.395Z,100952.84
2023-04-21T23:17:11.741Z,100952.66
2023-04-21T23:19:38.372Z,100958.56
2023-04-21T23:22:05.156Z,100953.28
2023-04-21T23:24:31.527Z,100954.56
2023-04-21T23:26:57.878Z,100952.31
2023-04-21T23:29:24.445Z,100940.31
2023-04-21T23:31:50.964Z,100953.13
2023-04-21T23:34:17.523Z,100947.56
2023-04-21T23:36:43.947Z,100951.53
2023-04-21T23:39:11.337Z,100956.72
2023-04-21T23:41:37.941Z,100945.94
2023-04-21T23:44:04.347Z,100948.06
2023-04-21T23:46:30.726Z,100951.94
2023-04-21T23:48:57.174Z,100950.75
2023-04-21T23:51:23.704Z,100951.41
2023-04-21T23:53:50.196Z,100959.31
2023-04-21T23:56:16.773Z,100955.09
2023-04-21T23:58:43.157Z,100945.16
